createdAt,value
2018-04-29T00:02:12.846Z,104267.27
2018-04-29T00:04:40.756Z,104203.23
2018-04-29T00:07:08.297Z,104243.89
2018-04-29T00:09:35.839Z,104313.02
2018-04-29T00:12:03.583Z,104198.14
2018-04-29T00:14:31.122Z,104208.31
2018-04-29T00:16:58.662Z,104222.55
2018-04-29T00:19:26.608Z,104287.60
2018-04-29T00:21:54.142Z,104323.18
2018-04-29T00:24:21.683Z,104372.99
2018-04-29T00:26:49.242Z,104405.52
2018-04-29T00:29:16.787Z,104422.80
2018-04-29T00:31:44.376Z,104467.53
2018-04-29T00:34:12.032Z,104461.44
2018-04-29T00:36:39.573Z,104483.80
2018-04-29T00:39:07.131Z,104468.55
2018-04-29T00:41:34.872Z,104469.56
2018-04-29T00:44:02.503Z,104511.25
2018-04-29T00:46:30.047Z,104540.73
2018-04-29T00:48:57.612Z,104489.90
2018-04-29T00:51:37.043Z,104452.28
2018-04-29T00:54:04.580Z,104422.80
2018-04-29T00:56:32.120Z,104418.73
2018-04-29T00:58:59.733Z,104347.58
2018-04-29T01:01:27.249Z,104290.66
2018-04-29T01:03:55.224Z,104239.82
2018-04-29T01:06:22.754Z,104306.91
2018-04-29T01:08:50.294Z,104323.18
2018-04-29T01:11:17.930Z,104332.33
2018-04-29T01:13:45.491Z,104365.87
2018-04-29T01:16:13.042Z,104344.53
2018-04-29T01:18:40.585Z,104296.75
2018-04-29T01:21:08.633Z,104272.36
2018-04-29T01:23:36.164Z,104329.28
2018-04-29T01:26:03.701Z,104328.27
2018-04-29T01:28:31.467Z,104313.02
2018-04-29T01:30:59.009Z,104297.77
2018-04-29T01:33:26.549Z,104339.44
2018-04-29T01:35:54.147Z,104326.23
2018-04-29T01:38:21.674Z,104357.74
2018-04-29T01:40:49.195Z,104371.98
2018-04-29T01:43:16.771Z,104293.70
2018-04-29T01:45:44.330Z,104306.91
2018-04-29T01:48:11.853Z,104357.74
2018-04-29T01:50:39.398Z,104342.50
2018-04-29T01:53:06.962Z,104389.26
2018-04-29T01:55:34.485Z,104384.17
2018-04-29T01:58:02.043Z,104367.91
2018-04-29T02:00:29.584Z,104346.56
2018-04-29T02:02:57.139Z,104361.81
2018-04-29T02:05:24.684Z,104364.86
2018-04-29T02:07:52.223Z,104330.30
2018-04-29T02:10:19.780Z,104338.42
2018-04-29T02:12:47.358Z,104365.87
2018-04-29T02:15:14.883Z,104337.41
2018-04-29T02:17:42.415Z,104333.34
2018-04-29T02:20:09.967Z,104357.74
2018-04-29T02:22:37.506Z,104170.70
2018-04-29T02:25:05.543Z,104213.39
2018-04-29T02:27:33.079Z,104139.19
2018-04-29T02:30:00.616Z,104126.98
2018-04-29T02:32:28.185Z,104156.47
2018-04-29T02:34:55.744Z,104227.63
2018-04-29T02:37:23.807Z,104168.67
2018-04-29T02:39:51.356Z,104203.23
2018-04-29T02:42:18.890Z,104237.79
2018-04-29T02:44:46.451Z,104263.20
2018-04-29T02:47:13.986Z,104262.19
2018-04-29T02:49:41.554Z,104273.38
2018-04-29T02:52:09.089Z,104233.73
2018-04-29T02:54:36.663Z,104211.36
2018-04-29T02:57:04.220Z,104091.41
2018-04-29T02:59:31.746Z,104058.88
2018-04-29T03:01:59.750Z,104180.86
2018-04-29T03:04:27.281Z,104260.16
2018-04-29T03:06:54.824Z,104257.10
2018-04-29T03:09:22.391Z,104261.17
2018-04-29T03:11:49.971Z,104287.60
2018-04-29T03:14:17.878Z,104292.69
2018-04-29T03:16:45.417Z,104298.78
2018-04-29T03:19:12.946Z,104296.75
2018-04-29T03:21:40.520Z,104319.11
2018-04-29T03:24:08.065Z,104328.27
2018-04-29T03:26:35.660Z,104327.24
2018-04-29T03:29:03.195Z,104326.23
2018-04-29T03:31:30.728Z,104334.36
2018-04-29T03:33:58.297Z,104298.78
2018-04-29T03:36:25.821Z,104231.69
2018-04-29T03:38:53.371Z,104220.51
2018-04-29T03:41:20.903Z,104234.74
2018-04-29T03:43:48.799Z,104232.70
2018-04-29T03:46:16.336Z,104243.89
2018-04-29T03:48:43.882Z,104267.27
2018-04-29T03:51:11.455Z,104339.44
2018-04-29T03:53:39.011Z,104442.12
2018-04-29T03:56:06.635Z,104368.92
2018-04-29T03:58:46.003Z,104356.73
2018-04-29T04:01:25.470Z,104554.96
2018-04-29T04:03:54.899Z,104569.20
2018-04-29T04:06:22.441Z,104476.69
2018-04-29T04:08:49.978Z,104438.05
2018-04-29T04:11:17.921Z,104563.09
2018-04-29T04:13:45.454Z,104596.64
2018-04-29T04:16:12.983Z,104636.29
2018-04-29T04:18:40.570Z,104624.09
2018-04-29T04:21:08.102Z,104606.81
2018-04-29T04:23:35.640Z,104614.94
2018-04-29T04:26:03.195Z,104597.66
2018-04-29T04:28:30.733Z,104559.03
2018-04-29T04:30:58.299Z,104541.75
2018-04-29T04:33:25.894Z,104500.06
2018-04-29T04:35:53.422Z,104463.47
2018-04-29T04:38:20.972Z,104432.97
2018-04-29T04:40:48.553Z,104367.91
2018-04-29T04:43:16.082Z,104411.62
2018-04-29T04:45:43.650Z,104371.98
2018-04-29T04:48:11.301Z,104293.70
2018-04-29T04:50:38.860Z,104220.51
2018-04-29T04:53:06.420Z,104166.63
2018-04-29T04:55:33.951Z,104132.08
2018-04-29T04:58:01.569Z,104168.67
2018-04-29T05:00:29.108Z,104174.77
2018-04-29T05:02:56.643Z,104100.56
2018-04-29T05:05:24.603Z,103996.88
2018-04-29T05:07:52.132Z,103986.72
2018-04-29T05:10:19.674Z,103881.01
2018-04-29T05:12:47.226Z,103788.52
2018-04-29T05:15:14.758Z,103831.20
2018-04-29T05:17:42.319Z,103764.12
2018-04-29T05:20:10.059Z,103729.56
2018-04-29T05:22:37.590Z,103685.86
2018-04-29T05:25:05.116Z,103690.94
2018-04-29T05:27:32.892Z,103617.77
2018-04-29T05:30:00.438Z,103659.44
2018-04-29T05:32:27.963Z,103616.75
2018-04-29T05:34:55.588Z,103554.75
2018-04-29T05:37:23.124Z,103564.91
2018-04-29T05:39:50.861Z,103502.92
2018-04-29T05:42:18.404Z,103516.12
2018-04-29T05:44:45.946Z,103594.39
2018-04-29T05:47:13.525Z,103536.45
2018-04-29T05:49:41.069Z,103484.63
2018-04-29T05:52:08.598Z,103344.38
2018-04-29T05:54:36.162Z,103427.72
2018-04-29T05:57:03.695Z,103438.89
2018-04-29T05:59:31.780Z,103342.34
2018-04-29T06:01:59.315Z,103366.73
2018-04-29T06:04:26.845Z,103460.23
2018-04-29T06:06:54.417Z,103453.13
2018-04-29T06:09:21.970Z,103447.02
2018-04-29T06:11:49.507Z,103444.98
2018-04-29T06:14:17.063Z,103389.09
2018-04-29T06:16:45.525Z,103296.61
2018-04-29T06:19:13.059Z,103387.06
2018-04-29T06:21:40.592Z,103439.91
2018-04-29T06:24:08.152Z,103375.88
2018-04-29T06:26:35.682Z,103329.13
2018-04-29T06:29:03.215Z,103390.11
2018-04-29T06:31:30.783Z,103300.68
2018-04-29T06:33:58.362Z,103304.74
2018-04-29T06:36:25.914Z,103260.03
2018-04-29T06:38:53.477Z,103255.97
2018-04-29T06:41:21.019Z,103303.73
2018-04-29T06:43:48.578Z,103284.42
2018-04-29T06:46:16.142Z,103050.69
2018-04-29T06:48:43.680Z,103154.34
2018-04-29T06:51:11.379Z,102939.92
2018-04-29T06:53:38.910Z,102771.25
2018-04-29T06:56:06.459Z,102572.10
2018-04-29T06:58:33.991Z,102576.16
2018-04-29T07:01:01.542Z,102614.77
2018-04-29T07:03:29.071Z,102606.65
2018-04-29T07:05:56.860Z,102671.67
2018-04-29T07:08:24.407Z,102573.12
2018-04-29T07:10:51.962Z,102388.20
2018-04-29T07:13:19.659Z,102475.58
2018-04-29T07:15:47.199Z,102528.41
2018-04-29T07:18:14.732Z,102523.33
2018-04-29T07:20:42.294Z,102223.61
2018-04-29T07:23:09.872Z,102161.64
2018-04-29T07:25:37.409Z,102189.08
2018-04-29T07:28:04.934Z,102272.38
2018-04-29T07:30:32.495Z,102192.13
2018-04-29T07:33:00.067Z,102190.09
2018-04-29T07:35:27.633Z,102260.19
2018-04-29T07:37:55.179Z,102102.72
2018-04-29T07:40:23.171Z,102045.83
2018-04-29T07:42:50.738Z,102110.84
2018-04-29T07:45:18.281Z,102108.81
2018-04-29T07:47:45.834Z,102233.77
2018-04-29T07:50:13.377Z,102221.58
2018-04-29T07:52:40.944Z,102194.16
2018-04-29T07:55:08.507Z,102226.66
2018-04-29T07:57:36.072Z,102181.96
2018-04-29T08:00:03.656Z,102111.86
2018-04-29T08:02:31.211Z,102190.09
2018-04-29T08:04:58.755Z,102154.53
2018-04-29T08:07:26.316Z,102292.70
2018-04-29T08:09:54.068Z,102450.17
2018-04-29T08:12:21.608Z,102229.71
2018-04-29T08:14:49.145Z,102197.20
2018-04-29T08:17:16.711Z,102178.91
2018-04-29T08:19:44.294Z,102272.38
2018-04-29T08:22:11.820Z,102243.94
2018-04-29T08:24:39.424Z,102304.89
2018-04-29T08:27:06.982Z,102255.11
2018-04-29T08:29:34.538Z,102233.77
2018-04-29T08:32:02.062Z,102191.11
2018-04-29T08:34:29.620Z,102200.25
2018-04-29T08:36:57.185Z,102240.89
2018-04-29T08:39:24.744Z,102132.19
2018-04-29T08:41:52.315Z,102234.79
2018-04-29T08:44:19.856Z,102176.88
2018-04-29T08:46:47.446Z,102149.45
2018-04-29T08:49:14.983Z,102057.01
2018-04-29T08:51:42.532Z,102076.31
2018-04-29T08:54:10.087Z,102096.62
2018-04-29T08:56:37.665Z,102257.14
2018-04-29T08:59:05.205Z,102185.02
2018-04-29T09:01:32.980Z,102197.20
2018-04-29T09:04:00.544Z,102337.41
2018-04-29T09:06:28.079Z,102313.02
2018-04-29T09:08:56.024Z,102451.20
2018-04-29T09:11:23.565Z,102421.73
2018-04-29T09:13:51.105Z,102572.10
2018-04-29T09:16:18.844Z,102598.52
2018-04-29T09:18:46.384Z,102580.23
2018-04-29T09:21:13.928Z,102505.04
2018-04-29T09:23:41.509Z,102550.77
2018-04-29T09:26:10.033Z,102622.91
2018-04-29T09:28:37.649Z,102692.00
2018-04-29T09:31:05.182Z,102732.64
2018-04-29T09:33:32.872Z,102865.75
2018-04-29T09:36:00.394Z,102933.83
2018-04-29T09:38:27.919Z,103033.41
2018-04-29T09:40:55.696Z,103049.67
2018-04-29T09:43:23.293Z,103082.19
2018-04-29T09:45:50.792Z,103089.30
2018-04-29T09:48:18.518Z,103108.61
2018-04-29T09:50:46.059Z,103112.67
2018-04-29T09:53:13.581Z,103134.02
2018-04-29T09:55:41.290Z,103120.80
2018-04-29T09:58:08.826Z,103103.53
2018-04-29T10:00:36.388Z,103103.53
2018-04-29T10:03:08.023Z,103104.55
2018-04-29T10:05:36.034Z,103188.89
2018-04-29T10:08:03.563Z,103153.33
2018-04-29T10:10:31.265Z,103155.36
2018-04-29T10:12:58.833Z,103159.42
2018-04-29T10:15:26.535Z,103096.42
2018-04-29T10:17:54.057Z,103128.94
2018-04-29T10:20:21.608Z,103085.23
2018-04-29T10:22:49.163Z,103040.53
2018-04-29T10:25:16.718Z,103084.22
2018-04-29T10:27:44.251Z,103138.08
2018-04-29T10:30:11.811Z,103084.22
2018-04-29T10:32:39.874Z,103073.05
2018-04-29T10:35:07.411Z,103059.84
2018-04-29T10:37:34.943Z,103067.96
2018-04-29T10:40:02.527Z,103092.35
2018-04-29T10:42:30.074Z,103039.52
2018-04-29T10:44:57.631Z,103020.20
2018-04-29T10:47:25.181Z,102963.30
2018-04-29T10:49:52.733Z,102897.25
2018-04-29T10:52:20.925Z,103011.06
2018-04-29T10:54:48.427Z,102969.39
2018-04-29T10:57:15.964Z,102951.11
2018-04-29T10:59:43.557Z,102964.31
2018-04-29T11:02:11.104Z,102957.20
2018-04-29T11:04:38.680Z,102904.36
2018-04-29T11:07:06.223Z,102933.83
2018-04-29T11:09:33.811Z,102928.75
2018-04-29T11:12:01.341Z,102864.73
2018-04-29T11:14:28.914Z,102938.91
2018-04-29T11:16:56.489Z,102969.39
2018-04-29T11:19:24.024Z,102835.27
2018-04-29T11:21:51.633Z,102864.73
2018-04-29T11:24:19.138Z,102871.84
2018-04-29T11:26:46.737Z,102916.56
2018-04-29T11:29:14.267Z,103003.95
2018-04-29T11:31:41.795Z,102996.83
2018-04-29T11:34:09.355Z,102999.87
2018-04-29T11:36:36.920Z,103009.02
2018-04-29T11:39:04.475Z,103046.63
2018-04-29T11:41:32.037Z,103084.22
2018-04-29T11:43:59.581Z,102988.70
2018-04-29T11:46:27.204Z,103005.98
2018-04-29T11:48:54.739Z,103046.63
2018-04-29T11:51:22.284Z,103002.93
2018-04-29T11:53:49.834Z,103013.09
2018-04-29T11:56:17.371Z,103000.89
2018-04-29T11:58:44.931Z,103022.23
2018-04-29T12:01:12.527Z,102901.31
2018-04-29T12:03:40.157Z,102899.28
2018-04-29T12:06:08.659Z,102967.36
2018-04-29T12:08:36.193Z,102969.39
2018-04-29T12:11:03.920Z,102967.36
2018-04-29T12:13:31.497Z,102858.63
2018-04-29T12:15:59.027Z,102800.72
2018-04-29T12:18:26.583Z,102708.25
2018-04-29T12:20:54.114Z,102564.98
2018-04-29T12:23:21.891Z,102451.20
2018-04-29T12:25:49.436Z,102423.77
2018-04-29T12:28:16.978Z,102542.64
2018-04-29T12:30:44.704Z,102480.66
2018-04-29T12:33:12.243Z,102445.09
2018-04-29T12:35:39.791Z,102437.98
2018-04-29T12:38:07.355Z,102376.01
2018-04-29T12:40:34.883Z,102302.86
2018-04-29T12:43:02.424Z,102291.69
2018-04-29T12:45:29.987Z,102266.28
2018-04-29T12:47:57.529Z,102281.52
2018-04-29T12:50:25.093Z,102334.36
2018-04-29T12:52:52.627Z,102369.91
2018-04-29T12:55:20.261Z,102333.34
2018-04-29T12:57:47.787Z,102216.50
2018-04-29T13:00:15.386Z,102228.70
2018-04-29T13:02:42.946Z,102129.14
2018-04-29T13:05:10.478Z,102090.53
2018-04-29T13:07:38.021Z,102268.32
2018-04-29T13:10:05.638Z,102206.34
2018-04-29T13:12:33.174Z,102176.88
2018-04-29T13:15:00.708Z,102050.91
2018-04-29T13:17:28.296Z,101959.48
2018-04-29T13:19:55.840Z,101922.91
2018-04-29T13:22:23.369Z,102013.32
2018-04-29T13:24:51.412Z,102030.59
2018-04-29T13:27:18.946Z,102045.83
2018-04-29T13:29:46.481Z,102018.41
2018-04-29T13:32:14.129Z,102027.55
2018-04-29T13:34:41.616Z,101968.63
2018-04-29T13:37:09.392Z,101998.08
2018-04-29T13:39:36.921Z,101881.27
2018-04-29T13:42:04.486Z,101855.86
2018-04-29T13:44:32.052Z,101822.34
2018-04-29T13:46:59.585Z,101723.81
2018-04-29T13:49:27.160Z,101779.68
2018-04-29T13:51:54.702Z,101580.59
2018-04-29T13:54:22.725Z,101605.98
2018-04-29T13:56:50.260Z,101626.30
2018-04-29T13:59:17.792Z,101678.09
2018-04-29T14:01:45.359Z,101623.25
2018-04-29T14:04:12.920Z,101815.23
2018-04-29T14:06:40.452Z,101922.91
2018-04-29T14:09:08.017Z,101734.98
2018-04-29T14:11:35.552Z,101734.98
2018-04-29T14:14:03.595Z,101973.70
2018-04-29T14:16:31.122Z,101857.89
2018-04-29T14:18:58.651Z,101924.94
2018-04-29T14:21:26.221Z,101822.34
2018-04-29T14:23:53.760Z,101732.95
2018-04-29T14:26:21.736Z,101562.30
2018-04-29T14:28:49.278Z,101569.41
2018-04-29T14:31:16.897Z,101480.03
2018-04-29T14:33:44.422Z,101736.00
2018-04-29T14:36:11.952Z,101770.53
2018-04-29T14:38:39.516Z,101763.42
2018-04-29T14:41:07.049Z,101731.94
2018-04-29T14:43:34.996Z,101670.98
2018-04-29T14:46:02.523Z,101775.62
2018-04-29T14:48:30.047Z,101642.55
2018-04-29T14:50:57.811Z,101704.52
2018-04-29T14:53:25.344Z,101567.38
2018-04-29T14:55:52.937Z,101514.56
2018-04-29T14:58:20.546Z,101433.30
2018-04-29T15:00:48.079Z,101662.86
2018-04-29T15:03:15.638Z,101847.73
2018-04-29T15:05:43.194Z,101909.70
2018-04-29T15:08:10.735Z,101945.27
2018-04-29T15:10:38.503Z,101969.64
2018-04-29T15:13:06.059Z,101856.87
2018-04-29T15:15:33.605Z,101857.89
2018-04-29T15:18:01.162Z,101785.77
2018-04-29T15:20:28.695Z,101764.44
2018-04-29T15:22:56.369Z,101885.32
2018-04-29T15:25:23.975Z,101907.67
2018-04-29T15:27:51.465Z,101818.28
2018-04-29T15:30:19.405Z,101919.86
2018-04-29T15:32:46.949Z,102071.23
2018-04-29T15:35:14.483Z,101962.53
2018-04-29T15:37:42.526Z,101878.22
2018-04-29T15:40:10.063Z,101983.86
2018-04-29T15:42:37.595Z,102037.70
2018-04-29T15:45:05.181Z,101919.86
2018-04-29T15:47:32.758Z,101889.39
2018-04-29T15:50:00.296Z,101981.83
2018-04-29T15:52:27.815Z,102022.47
2018-04-29T15:54:55.379Z,101916.81
2018-04-29T15:57:22.982Z,102011.29
2018-04-29T15:59:50.567Z,102158.59
2018-04-29T16:02:18.095Z,102125.07
2018-04-29T16:04:45.653Z,102270.35
2018-04-29T16:07:13.183Z,102371.95
2018-04-29T16:09:40.736Z,102381.09
2018-04-29T16:12:08.295Z,102381.09
2018-04-29T16:14:35.830Z,102281.52
2018-04-29T16:17:03.403Z,102312.00
2018-04-29T16:19:30.942Z,102270.35
2018-04-29T16:21:58.938Z,102302.86
2018-04-29T16:24:26.475Z,102357.72
2018-04-29T16:26:54.009Z,102314.03
2018-04-29T16:29:21.563Z,102372.96
2018-04-29T16:31:50.044Z,102404.45
2018-04-29T16:34:17.652Z,102408.52
2018-04-29T16:36:45.208Z,102460.34
2018-04-29T16:39:12.787Z,102552.80
2018-04-29T16:41:40.352Z,102493.87
2018-04-29T16:44:07.997Z,102549.75
2018-04-29T16:46:35.701Z,102534.50
2018-04-29T16:49:03.301Z,102521.30
2018-04-29T16:51:30.996Z,102569.05
2018-04-29T16:53:58.568Z,102514.19
2018-04-29T16:56:26.104Z,102495.90
2018-04-29T16:58:53.687Z,102507.08
2018-04-29T17:01:21.300Z,102422.75
2018-04-29T17:03:49.335Z,102434.94
2018-04-29T17:06:16.898Z,102424.78
2018-04-29T17:08:44.430Z,102436.97
2018-04-29T17:11:12.559Z,102360.77
2018-04-29T17:13:40.108Z,102257.14
2018-04-29T17:16:07.656Z,102156.56
2018-04-29T17:18:35.207Z,102084.44
2018-04-29T17:21:03.249Z,102189.08
2018-04-29T17:23:30.839Z,102278.48
2018-04-29T17:25:58.387Z,102317.08
2018-04-29T17:28:25.921Z,102312.00
2018-04-29T17:30:53.479Z,102298.80
2018-04-29T17:33:21.011Z,102411.57
2018-04-29T17:35:48.568Z,102435.95
2018-04-29T17:38:16.115Z,102377.02
2018-04-29T17:40:43.744Z,102507.08
2018-04-29T17:43:11.280Z,102582.27
2018-04-29T17:45:38.811Z,102562.95
2018-04-29T17:48:06.879Z,102605.63
2018-04-29T17:50:34.416Z,102683.87
2018-04-29T17:53:01.960Z,102716.38
2018-04-29T17:55:29.527Z,102741.78
2018-04-29T17:57:57.059Z,102777.34
2018-04-29T18:00:24.760Z,102821.04
2018-04-29T18:02:52.295Z,102878.95
2018-04-29T18:05:19.846Z,102929.77
2018-04-29T18:07:47.375Z,102938.91
2018-04-29T18:10:14.930Z,102950.09
2018-04-29T18:12:42.466Z,102997.84
2018-04-29T18:15:10.133Z,103018.17
2018-04-29T18:17:37.658Z,103032.40
2018-04-29T18:20:05.197Z,103017.16
2018-04-29T18:22:32.760Z,103048.66
2018-04-29T18:25:00.299Z,103071.02
2018-04-29T18:27:27.867Z,103072.03
2018-04-29T18:29:55.390Z,103042.56
2018-04-29T18:32:22.954Z,103058.82
2018-04-29T18:34:50.491Z,103138.08
2018-04-29T18:37:18.114Z,103096.42
2018-04-29T18:39:45.676Z,103098.45
2018-04-29T18:42:13.213Z,103110.64
2018-04-29T18:44:40.830Z,103109.62
2018-04-29T18:47:08.345Z,103093.37
2018-04-29T18:49:35.922Z,103121.82
2018-04-29T18:52:03.464Z,103113.69
2018-04-29T18:54:31.452Z,103172.63
2018-04-29T18:56:58.979Z,103184.83
2018-04-29T18:59:26.543Z,103186.86
2018-04-29T19:01:54.095Z,103175.68
2018-04-29T19:04:21.625Z,103200.07
2018-04-29T19:06:49.617Z,103197.02
2018-04-29T19:09:17.151Z,103250.88
2018-04-29T19:11:44.692Z,103224.45
2018-04-29T19:14:12.445Z,103263.08
2018-04-29T19:16:39.919Z,103204.14
2018-04-29T19:19:07.487Z,103241.73
2018-04-29T19:21:35.167Z,103246.81
2018-04-29T19:24:03.152Z,103244.78
2018-04-29T19:26:30.694Z,103270.19
2018-04-29T19:28:58.231Z,103293.56
2018-04-29T19:31:25.966Z,103289.50
2018-04-29T19:33:53.547Z,103277.30
2018-04-29T19:36:21.078Z,103310.84
2018-04-29T19:38:48.643Z,103355.56
2018-04-29T19:41:16.179Z,103436.86
2018-04-29T19:43:43.977Z,103492.75
2018-04-29T19:46:11.511Z,103542.55
2018-04-29T19:48:39.042Z,103549.67
2018-04-29T19:51:06.767Z,103568.98
2018-04-29T19:53:34.299Z,103648.25
2018-04-29T19:56:01.830Z,103645.20
2018-04-29T19:58:29.394Z,103629.96
2018-04-29T20:00:56.929Z,103679.77
2018-04-29T20:03:24.504Z,103688.91
2018-04-29T20:05:52.056Z,103695.01
2018-04-29T20:08:19.666Z,103701.11
2018-04-29T20:10:47.209Z,103711.27
2018-04-29T20:13:14.756Z,103763.10
2018-04-29T20:15:42.407Z,103771.23
2018-04-29T20:18:09.947Z,103784.45
2018-04-29T20:20:37.855Z,103775.30
2018-04-29T20:23:05.393Z,103789.53
2018-04-29T20:25:32.924Z,103832.22
2018-04-29T20:28:00.479Z,103832.22
2018-04-29T20:30:28.016Z,103831.20
2018-04-29T20:32:55.585Z,103847.47
2018-04-29T20:35:23.171Z,103868.81
2018-04-29T20:37:50.723Z,103875.92
2018-04-29T20:40:18.323Z,103892.19
2018-04-29T20:42:45.901Z,103879.99
2018-04-29T20:45:13.443Z,103896.25
2018-04-29T20:47:40.983Z,103911.50
2018-04-29T20:50:08.537Z,103936.91
2018-04-29T20:52:36.072Z,103968.42
2018-04-29T20:55:03.651Z,104005.02
2018-04-29T20:57:31.173Z,104033.48
2018-04-29T20:59:58.927Z,104058.88
2018-04-29T21:02:26.467Z,104145.29
2018-04-29T21:04:54.000Z,104177.81
2018-04-29T21:07:21.564Z,104208.31
2018-04-29T21:09:49.085Z,104230.67
2018-04-29T21:12:16.660Z,104262.19
2018-04-29T21:14:44.674Z,104277.44
2018-04-29T21:17:12.283Z,104291.67
2018-04-29T21:19:39.758Z,104341.48
2018-04-29T21:22:07.321Z,104304.88
2018-04-29T21:24:34.863Z,104292.69
2018-04-29T21:27:02.429Z,104318.09
2018-04-29T21:29:29.972Z,104058.88
2018-04-29T21:31:57.674Z,104403.48
2018-04-29T21:34:25.222Z,104334.36
2018-04-29T21:36:52.764Z,104381.12
2018-04-29T21:39:20.492Z,104393.32
2018-04-29T21:41:48.044Z,104459.41
2018-04-29T21:44:15.606Z,104476.69
2018-04-29T21:46:43.170Z,104472.62
2018-04-29T21:49:10.731Z,104469.56
2018-04-29T21:51:38.295Z,104454.31
2018-04-29T21:54:05.846Z,104445.17
2018-04-29T21:56:33.443Z,104425.85
2018-04-29T21:59:01.285Z,104432.97
2018-04-29T22:01:28.832Z,104409.59
2018-04-29T22:03:56.365Z,104441.10
2018-04-29T22:06:24.031Z,104424.84
2018-04-29T22:08:51.572Z,104420.77
2018-04-29T22:11:19.116Z,104411.62
2018-04-29T22:13:46.785Z,104427.89
2018-04-29T22:16:14.322Z,104445.17
2018-04-29T22:18:41.859Z,104447.20
2018-04-29T22:21:09.443Z,104465.50
2018-04-29T22:23:36.972Z,104467.53
2018-04-29T22:26:04.532Z,104459.41
2018-04-29T22:28:32.093Z,104510.23
2018-04-29T22:30:59.633Z,104465.50
2018-04-29T22:33:27.311Z,104445.17
2018-04-29T22:35:54.855Z,104487.87
2018-04-29T22:38:22.395Z,104482.78
2018-04-29T22:40:50.001Z,104479.73
2018-04-29T22:43:17.539Z,104497.02
2018-04-29T22:45:45.088Z,104514.30
2018-04-29T22:48:12.676Z,104517.34
2018-04-29T22:50:40.221Z,104504.13
2018-04-29T22:53:07.757Z,104518.36
2018-04-29T22:55:35.478Z,104545.81
2018-04-29T22:58:03.029Z,104538.70
2018-04-29T23:00:30.573Z,104531.58
2018-04-29T23:02:58.139Z,104519.38
2018-04-29T23:05:25.730Z,104490.91
2018-04-29T23:07:53.262Z,104452.28
2018-04-29T23:10:20.991Z,104486.84
2018-04-29T23:12:48.574Z,104493.97
2018-04-29T23:15:16.099Z,104525.48
2018-04-29T23:17:43.668Z,104471.60
2018-04-29T23:20:11.199Z,104539.71
2018-04-29T23:22:38.792Z,104529.55
2018-04-29T23:25:06.338Z,104499.05
2018-04-29T23:27:33.874Z,104545.81
2018-04-29T23:30:01.440Z,104534.63
2018-04-29T23:32:29.169Z,104528.53
2018-04-29T23:34:56.703Z,104564.11
2018-04-29T23:37:24.242Z,104588.52
2018-04-29T23:39:52.004Z,104575.30
2018-04-29T23:42:19.534Z,104546.83
2018-04-29T23:44:47.075Z,104569.20
2018-04-29T23:47:14.664Z,104567.16
2018-04-29T23:49:42.194Z,104542.77
2018-04-29T23:52:09.722Z,104547.84
2018-04-29T23:54:37.313Z,104546.83
2018-04-29T23:57:04.851Z,104574.28
2018-04-29T23:59:32.392Z,104509.21
